Terminal Aerodrome Forecast
Issued by NWS Blacksburg, VA

Home | Current Version | Previous Version | Text Only | Print | Product List | Glossary On
Versions: 1 2 3 4 5 6 7 8 9 10 11 12 13 14 15 16 17 18 19 20 21 22 23 24
000
FTUS41 KRNK 242337
TAFDAN
TAF
KDAN 242337Z 2500/2524 18006KT P6SM SKC
     FM250200 00000KT P6SM SKC
     FM251400 22007KT P6SM SKC
     FM251700 22009G17KT P6SM SCT060=

USA.gov is the U.S. government's official web portal to all federal, state and local government web resources and services.